Time;durP1;ratioP1;P1;durP2;ratioP2;P2;SDS_P1;SDS_P2;PMS_P1;PMS_P2;Temp;Humidity;BMP_temperature;BMP_pressure;BME280_temperature;BME280_humidity;BME280_pressure;Samples;Min_cycle;Max_cycle;Signal;HPM_P1;HPM_P2
2024/01/30 00:01:52;;;;;;;13.15;6.32;;;9.90;99.90;;;;;;4156656;28;20037;-77
2024/01/30 00:03:53;;;;;;;10.00;6.60;;;9.90;99.90;;;;;;4122793;28;20035;-77
2024/01/30 00:05:53;;;;;;;12.30;6.55;;;9.90;99.90;;;;;;4124360;28;20022;-77
2024/01/30 00:07:54;;;;;;;9.38;6.53;;;9.90;99.90;;;;;;4137629;28;20038;-77
2024/01/30 00:09:55;;;;;;;8.85;5.93;;;9.90;99.90;;;;;;4141843;28;20054;-74
2024/01/30 00:11:55;;;;;;;15.27;7.30;;;9.90;99.90;;;;;;4156533;28;20479;-73
2024/01/30 00:13:56;;;;;;;13.00;6.18;;;9.90;99.90;;;;;;4140284;28;20489;-74
2024/01/30 00:15:57;;;;;;;12.07;6.72;;;9.80;99.90;;;;;;4157621;28;20411;-75
2024/01/30 00:17:57;;;;;;;10.98;7.28;;;9.80;99.90;;;;;;4141295;28;20113;-73
2024/01/30 00:19:58;;;;;;;12.40;7.25;;;9.80;99.90;;;;;;4141495;28;20034;-74
2024/01/30 00:21:58;;;;;;;13.40;6.93;;;9.80;99.90;;;;;;4156605;28;20041;-76
2024/01/30 00:23:59;;;;;;;13.07;7.20;;;9.80;99.90;;;;;;4154371;28;20086;-73
2024/01/30 00:26:00;;;;;;;10.38;5.65;;;9.80;99.90;;;;;;4157079;28;20491;-74
2024/01/30 00:28:01;;;;;;;9.98;6.15;;;9.80;99.90;;;;;;4158987;28;20109;-74
2024/01/30 00:30:02;;;;;;;11.38;6.20;;;9.80;99.90;;;;;;4158305;28;20116;-74
2024/01/30 00:32:02;;;;;;;11.85;6.80;;;9.80;99.90;;;;;;4157979;28;20300;-74
2024/01/30 00:34:03;;;;;;;11.10;5.97;;;9.80;99.90;;;;;;4159093;28;20041;-75
2024/01/30 00:36:04;;;;;;;12.23;6.88;;;9.70;99.90;;;;;;4156466;28;20422;-75
2024/01/30 00:38:07;;;;;;;12.10;6.50;;;9.70;99.90;;;;;;4154854;28;20141;-74
2024/01/30 00:40:10;;;;;;;11.63;6.60;;;9.70;99.90;;;;;;4152543;28;20051;-74
2024/01/30 00:42:10;;;;;;;11.15;6.28;;;9.70;99.90;;;;;;4154413;28;20478;-74
2024/01/30 00:44:11;;;;;;;10.65;6.50;;;9.70;99.90;;;;;;4157500;28;20033;-74
2024/01/30 00:46:12;;;;;;;8.80;6.28;;;9.70;99.90;;;;;;4155850;28;20029;-75
2024/01/30 00:48:12;;;;;;;9.52;6.72;;;9.70;99.90;;;;;;4138563;28;20092;-76
2024/01/30 00:50:13;;;;;;;12.30;6.68;;;9.70;99.90;;;;;;4138730;28;20038;-76
2024/01/30 00:52:13;;;;;;;12.48;6.50;;;9.70;99.90;;;;;;4156539;28;20053;-74
2024/01/30 00:54:14;;;;;;;11.15;6.65;;;9.70;99.90;;;;;;4140497;28;20161;-74
2024/01/30 00:56:18;;;;;;;10.65;6.57;;;9.70;99.90;;;;;;4138634;28;20652;-74
2024/01/30 00:58:19;;;;;;;10.32;6.55;;;9.70;99.90;;;;;;4157475;28;20029;-74
2024/01/30 01:00:20;;;;;;;7.90;5.88;;;9.70;99.90;;;;;;4139376;28;20479;-74
2024/01/30 01:02:21;;;;;;;9.82;6.07;;;9.70;99.90;;;;;;4146674;28;20050;-75
2024/01/30 01:04:22;;;;;;;10.85;6.35;;;9.60;99.90;;;;;;4157680;28;20246;-75
2024/01/30 01:06:23;;;;;;;12.40;7.30;;;9.60;99.90;;;;;;4131235;28;20124;-74
2024/01/30 01:08:23;;;;;;;11.98;6.72;;;9.60;99.90;;;;;;4139564;28;20534;-74
2024/01/30 01:10:24;;;;;;;9.73;6.35;;;9.60;99.90;;;;;;4156690;28;20029;-74
2024/01/30 01:12:24;;;;;;;14.40;7.32;;;9.60;99.90;;;;;;4157518;28;20060;-74
2024/01/30 01:14:25;;;;;;;13.48;7.18;;;9.60;99.90;;;;;;4158755;28;20022;-74
2024/01/30 01:16:26;;;;;;;10.57;6.53;;;9.60;99.90;;;;;;4155013;28;20034;-75
2024/01/30 01:18:27;;;;;;;11.13;6.47;;;9.50;99.90;;;;;;4158151;28;20038;-73
2024/01/30 01:20:27;;;;;;;11.75;7.55;;;9.50;99.90;;;;;;4139805;28;20088;-74
2024/01/30 01:22:28;;;;;;;10.68;6.40;;;9.50;99.90;;;;;;4140443;28;20521;-73
2024/01/30 01:24:32;;;;;;;11.65;6.88;;;9.50;99.90;;;;;;4124908;28;20052;-74
2024/01/30 01:26:33;;;;;;;11.82;6.72;;;9.50;99.90;;;;;;4141730;28;20116;-76
2024/01/30 01:28:34;;;;;;;12.15;6.95;;;9.50;99.90;;;;;;4143797;28;20423;-73
2024/01/30 01:30:35;;;;;;;9.57;6.70;;;9.50;99.90;;;;;;4158783;28;20109;-74
2024/01/30 01:32:36;;;;;;;9.07;6.47;;;9.50;99.90;;;;;;4126026;28;20084;-73
2024/01/30 01:34:37;;;;;;;10.65;5.97;;;9.50;99.90;;;;;;4143135;28;20556;-73
2024/01/30 01:36:38;;;;;;;12.05;7.15;;;9.60;99.90;;;;;;4138363;28;20026;-75
2024/01/30 01:38:38;;;;;;;11.80;6.82;;;9.50;99.90;;;;;;4143918;28;20137;-73
2024/01/30 01:40:39;;;;;;;10.60;6.63;;;9.50;99.90;;;;;;4140018;28;20030;-73
2024/01/30 01:42:40;;;;;;;13.43;7.05;;;9.50;99.90;;;;;;4158238;28;20125;-74
2024/01/30 01:44:41;;;;;;;14.00;6.95;;;9.50;99.90;;;;;;4159312;28;20030;-73
2024/01/30 01:46:41;;;;;;;11.25;6.90;;;9.50;99.90;;;;;;4157016;28;20029;-73
2024/01/30 01:48:43;;;;;;;13.43;7.32;;;9.50;99.90;;;;;;4156445;28;20139;-75
2024/01/30 01:50:43;;;;;;;11.13;6.65;;;9.50;99.90;;;;;;4140977;28;20053;-74
2024/01/30 01:52:47;;;;;;;13.07;6.93;;;9.40;99.90;;;;;;4157192;28;20041;-73
2024/01/30 01:54:47;;;;;;;11.45;6.55;;;9.50;99.90;;;;;;4158140;28;20114;-73
2024/01/30 01:56:48;;;;;;;10.15;6.45;;;9.50;99.90;;;;;;4141069;28;20407;-73
2024/01/30 01:58:49;;;;;;;10.70;6.97;;;9.40;99.90;;;;;;4157675;28;20036;-73
2024/01/30 02:00:51;;;;;;;13.63;6.82;;;9.40;99.90;;;;;;4141787;28;20424;-74
2024/01/30 02:02:54;;;;;;;13.55;7.20;;;9.40;99.90;;;;;;4142727;28;20054;-73
2024/01/30 02:04:54;;;;;;;20.95;7.07;;;9.40;99.90;;;;;;4142211;28;20049;-73
2024/01/30 02:06:55;;;;;;;12.63;6.80;;;9.40;99.90;;;;;;4141921;28;20034;-73
2024/01/30 02:08:56;;;;;;;13.48;7.30;;;9.40;99.90;;;;;;4159320;28;20112;-73
2024/01/30 02:10:56;;;;;;;12.27;7.25;;;9.40;99.90;;;;;;4140373;28;20049;-75
2024/01/30 02:12:57;;;;;;;9.57;6.50;;;9.30;99.90;;;;;;4159077;28;20030;-74
2024/01/30 02:14:58;;;;;;;9.98;6.82;;;9.30;99.90;;;;;;4142414;28;20032;-73
2024/01/30 02:16:58;;;;;;;12.27;6.22;;;9.40;99.90;;;;;;4141584;28;20041;-74
2024/01/30 02:18:59;;;;;;;15.30;7.13;;;9.40;99.90;;;;;;4159949;28;20037;-74
2024/01/30 02:21:04;;;;;;;11.32;6.28;;;9.40;99.90;;;;;;4142518;28;20145;-74
2024/01/30 02:23:07;;;;;;;11.25;7.13;;;9.40;99.90;;;;;;4162470;28;20514;-73
2024/01/30 02:25:08;;;;;;;10.80;7.25;;;9.30;99.90;;;;;;4142349;28;20030;-75
2024/01/30 02:27:08;;;;;;;11.90;7.00;;;9.30;99.90;;;;;;4137537;28;20030;-75
2024/01/30 02:29:09;;;;;;;13.70;6.78;;;9.30;99.90;;;;;;4143589;28;20022;-74
2024/01/30 02:31:09;;;;;;;11.57;7.00;;;9.30;99.90;;;;;;4142499;28;20093;-75
2024/01/30 02:33:10;;;;;;;16.70;7.63;;;9.30;99.90;;;;;;4142092;28;20034;-73
2024/01/30 02:35:10;;;;;;;16.98;7.07;;;9.30;99.90;;;;;;4142258;28;20057;-75
2024/01/30 02:37:11;;;;;;;15.27;7.47;;;9.30;99.90;;;;;;4159654;28;20026;-73
2024/01/30 02:39:12;;;;;;;10.95;6.57;;;9.30;99.90;;;;;;4142997;28;20065;-75
2024/01/30 02:41:12;;;;;;;12.55;7.45;;;9.30;99.90;;;;;;4159296;28;20402;-74
2024/01/30 02:43:13;;;;;;;12.60;7.20;;;9.30;99.90;;;;;;4143072;28;20088;-74
2024/01/30 02:45:14;;;;;;;15.02;6.85;;;9.30;99.90;;;;;;4142172;28;20121;-76
2024/01/30 02:47:14;;;;;;;12.25;7.60;;;9.30;99.90;;;;;;4142436;28;20040;-76
2024/01/30 02:49:16;;;;;;;10.43;7.32;;;9.30;99.90;;;;;;4159795;28;20032;-78
2024/01/30 02:51:17;;;;;;;14.52;8.07;;;9.30;99.90;;;;;;4158120;28;20029;-77
2024/01/30 02:53:17;;;;;;;9.88;6.50;;;9.30;99.90;;;;;;4147714;28;20474;-78
2024/01/30 02:55:18;;;;;;;14.98;7.13;;;9.30;99.90;;;;;;4141178;28;20254;-77
2024/01/30 02:57:19;;;;;;;14.73;7.75;;;9.30;99.90;;;;;;4158532;28;20021;-77
2024/01/30 02:59:19;;;;;;;13.48;7.50;;;9.30;99.90;;;;;;4142448;28;20034;-76
2024/01/30 03:01:20;;;;;;;11.95;7.60;;;9.30;99.90;;;;;;4158895;28;20038;-77
2024/01/30 03:03:20;;;;;;;12.70;7.35;;;9.20;99.90;;;;;;4157584;28;20030;-78
2024/01/30 03:05:21;;;;;;;13.60;8.43;;;9.30;99.90;;;;;;4140614;28;20178;-77
2024/01/30 03:07:21;;;;;;;14.65;8.15;;;9.20;99.90;;;;;;4159630;28;20040;-78
2024/01/30 03:09:22;;;;;;;13.32;7.47;;;9.20;99.90;;;;;;4159153;28;20033;-76
2024/01/30 03:11:23;;;;;;;16.02;7.95;;;9.20;99.90;;;;;;4129807;28;20042;-78
2024/01/30 03:13:24;;;;;;;12.18;8.27;;;9.20;99.90;;;;;;4142427;28;20530;-77
2024/01/30 03:15:25;;;;;;;11.55;7.22;;;9.20;99.90;;;;;;4158945;28;20034;-78
2024/01/30 03:17:26;;;;;;;12.88;7.88;;;9.20;99.90;;;;;;4159406;28;20448;-76
2024/01/30 03:19:26;;;;;;;14.50;8.65;;;9.10;99.90;;;;;;4156875;28;20383;-78
2024/01/30 03:21:27;;;;;;;14.35;7.75;;;9.10;99.90;;;;;;4140927;28;20462;-78
2024/01/30 03:23:27;;;;;;;15.27;8.68;;;9.10;99.90;;;;;;4159531;28;20418;-78
2024/01/30 03:25:28;;;;;;;11.90;8.13;;;9.10;99.90;;;;;;4158624;28;20680;-78
2024/01/30 03:27:28;;;;;;;12.73;7.57;;;9.10;99.90;;;;;;4159748;28;20133;-77
2024/01/30 03:29:29;;;;;;;13.63;8.45;;;9.10;99.90;;;;;;4159855;28;20057;-79
2024/01/30 03:31:30;;;;;;;15.35;9.45;;;9.00;99.90;;;;;;4141505;28;20091;-77
2024/01/30 03:33:30;;;;;;;14.88;7.80;;;9.10;99.90;;;;;;4141493;28;20029;-79
2024/01/30 03:35:31;;;;;;;16.48;8.35;;;9.10;99.90;;;;;;4140862;28;20038;-80
2024/01/30 03:37:31;;;;;;;15.43;7.70;;;9.00;99.90;;;;;;4158045;28;20031;-79
2024/01/30 03:39:32;;;;;;;13.35;7.82;;;9.10;99.90;;;;;;4158551;28;20047;-76
2024/01/30 03:41:33;;;;;;;18.77;9.02;;;9.00;99.90;;;;;;4124376;28;20042;-78
2024/01/30 03:43:34;;;;;;;14.00;8.07;;;9.00;99.90;;;;;;4159428;28;20041;-78
2024/01/30 03:45:34;;;;;;;13.02;7.95;;;9.00;99.90;;;;;;4140718;28;20077;-78
2024/01/30 03:47:35;;;;;;;12.10;7.82;;;9.00;99.90;;;;;;4158793;28;20034;-78
2024/01/30 03:49:35;;;;;;;14.00;9.07;;;9.00;99.90;;;;;;4158787;28;20036;-79
2024/01/30 03:51:36;;;;;;;14.82;8.60;;;9.00;99.90;;;;;;4139946;28;20037;-78
2024/01/30 03:53:37;;;;;;;18.00;7.97;;;9.00;99.90;;;;;;4158513;28;20042;-77
2024/01/30 03:55:37;;;;;;;13.20;8.95;;;9.00;99.90;;;;;;4157938;28;20091;-79
2024/01/30 03:57:38;;;;;;;16.85;8.98;;;8.90;99.90;;;;;;4153293;28;20044;-79
2024/01/30 03:59:41;;;;;;;16.50;9.65;;;9.00;99.90;;;;;;4155195;28;20037;-80
2024/01/30 04:01:41;;;;;;;15.60;8.50;;;8.90;99.90;;;;;;4148648;28;20041;-78
2024/01/30 04:03:43;;;;;;;15.15;8.48;;;8.90;99.90;;;;;;4133695;28;20034;-79
2024/01/30 04:05:45;;;;;;;15.38;8.98;;;9.00;99.90;;;;;;4153943;28;20125;-79
2024/01/30 04:07:46;;;;;;;11.80;7.72;;;8.90;99.90;;;;;;4137500;28;20034;-77
2024/01/30 04:09:46;;;;;;;12.85;7.65;;;8.90;99.90;;;;;;4149107;28;20442;-79
2024/01/30 04:11:47;;;;;;;16.58;8.85;;;9.00;99.90;;;;;;4152770;28;20030;-79
2024/01/30 04:13:48;;;;;;;12.95;8.15;;;8.90;99.90;;;;;;4138706;28;20092;-79
2024/01/30 04:15:48;;;;;;;15.65;8.60;;;9.00;99.90;;;;;;4157833;28;20044;-79
2024/01/30 04:17:49;;;;;;;13.73;8.40;;;8.90;99.90;;;;;;4158344;28;20037;-78
2024/01/30 04:19:49;;;;;;;15.15;8.40;;;9.00;99.90;;;;;;4159130;28;20026;-79
2024/01/30 04:21:50;;;;;;;18.95;9.13;;;8.90;99.90;;;;;;4157990;28;20487;-79
2024/01/30 04:23:51;;;;;;;19.00;10.25;;;8.90;99.90;;;;;;4158826;28;20516;-77
2024/01/30 04:25:52;;;;;;;13.52;7.82;;;8.90;99.90;;;;;;4140501;28;20038;-79
2024/01/30 04:27:52;;;;;;;15.20;9.07;;;8.90;99.90;;;;;;4156132;28;20535;-78
2024/01/30 04:29:53;;;;;;;18.38;9.88;;;8.90;99.90;;;;;;4136351;28;21079;-79
2024/01/30 04:31:54;;;;;;;16.73;9.13;;;8.90;99.90;;;;;;4157121;28;20072;-76
2024/01/30 04:33:54;;;;;;;15.85;9.02;;;8.90;99.90;;;;;;4124470;28;20030;-79
2024/01/30 04:35:55;;;;;;;18.08;9.13;;;8.90;99.90;;;;;;4156139;28;20056;-79
2024/01/30 04:37:55;;;;;;;15.32;8.32;;;8.80;99.90;;;;;;4139550;28;20515;-78
2024/01/30 04:39:56;;;;;;;14.77;7.32;;;8.90;99.90;;;;;;4158041;28;20416;-78
2024/01/30 04:41:57;;;;;;;15.27;9.00;;;8.90;99.90;;;;;;4140174;28;20033;-80
2024/01/30 04:43:58;;;;;;;15.57;8.68;;;8.90;99.90;;;;;;4140865;28;20511;-80
2024/01/30 04:45:58;;;;;;;16.02;8.23;;;8.80;99.90;;;;;;4157847;28;20104;-79
2024/01/30 04:47:59;;;;;;;12.93;8.32;;;8.80;99.90;;;;;;4143103;28;20117;-79
2024/01/30 04:50:01;;;;;;;14.02;8.23;;;8.80;99.90;;;;;;4157448;28;20030;-78
2024/01/30 04:52:01;;;;;;;16.77;8.23;;;8.80;99.90;;;;;;4138970;28;20038;-78
2024/01/30 04:54:02;;;;;;;12.80;7.97;;;8.80;99.90;;;;;;4155533;28;20057;-75
2024/01/30 04:56:04;;;;;;;12.60;7.57;;;8.80;99.90;;;;;;4139672;28;20045;-79
2024/01/30 04:58:05;;;;;;;14.15;7.32;;;8.80;99.90;;;;;;4156481;28;20041;-78
2024/01/30 05:00:06;;;;;;;12.27;7.47;;;8.80;99.90;;;;;;4137954;28;20072;-79
2024/01/30 05:02:07;;;;;;;12.52;7.45;;;8.90;99.90;;;;;;4132473;28;20041;-79
2024/01/30 05:04:08;;;;;;;11.38;6.85;;;8.80;99.90;;;;;;4156598;28;20036;-78
2024/01/30 05:06:09;;;;;;;12.30;7.85;;;8.90;99.90;;;;;;4157747;28;20029;-78
2024/01/30 05:08:10;;;;;;;10.35;6.95;;;8.80;99.90;;;;;;4140490;28;20068;-75
2024/01/30 05:10:10;;;;;;;12.23;7.57;;;8.90;99.90;;;;;;4138707;28;20511;-74
2024/01/30 05:12:11;;;;;;;10.52;6.43;;;8.80;99.90;;;;;;4140494;28;20595;-72
2024/01/30 05:14:12;;;;;;;10.45;6.80;;;8.90;99.90;;;;;;4140618;28;20033;-73
2024/01/30 05:16:13;;;;;;;13.57;7.78;;;8.90;99.90;;;;;;4157023;28;20044;-75
2024/01/30 05:18:13;;;;;;;13.52;7.25;;;8.80;99.90;;;;;;4158098;28;20033;-73
2024/01/30 05:20:14;;;;;;;12.90;7.20;;;8.80;99.90;;;;;;4156183;28;20466;-74
2024/01/30 05:22:15;;;;;;;14.18;7.65;;;8.90;99.90;;;;;;4123728;28;20165;-73
2024/01/30 05:24:16;;;;;;;12.38;7.25;;;8.90;99.90;;;;;;4139715;28;20026;-74
2024/01/30 05:26:16;;;;;;;12.32;7.18;;;8.90;99.90;;;;;;4135445;28;20031;-73
2024/01/30 05:28:17;;;;;;;11.98;6.82;;;8.90;99.90;;;;;;4157582;28;20574;-73
2024/01/30 05:30:18;;;;;;;11.43;6.93;;;8.80;99.90;;;;;;4122444;28;20034;-74
2024/01/30 05:32:18;;;;;;;12.13;7.22;;;8.90;99.90;;;;;;4157139;28;20091;-72
2024/01/30 05:34:19;;;;;;;10.93;7.18;;;8.90;99.90;;;;;;4157794;28;20444;-74
2024/01/30 05:36:20;;;;;;;11.90;6.55;;;8.80;99.90;;;;;;4139359;28;20034;-74
2024/01/30 05:38:21;;;;;;;16.08;7.50;;;8.80;99.90;;;;;;4138169;28;20030;-73
2024/01/30 05:40:22;;;;;;;11.57;7.13;;;8.80;99.90;;;;;;4138565;28;20030;-74
2024/01/30 05:42:22;;;;;;;13.40;7.22;;;8.80;99.90;;;;;;4138731;28;20042;-75
2024/01/30 05:44:23;;;;;;;15.65;7.82;;;8.80;99.90;;;;;;4140598;28;20427;-73
2024/01/30 05:46:23;;;;;;;12.63;7.40;;;8.80;99.90;;;;;;4139738;28;20109;-74
2024/01/30 05:48:24;;;;;;;12.07;6.53;;;8.80;99.90;;;;;;4157892;28;20498;-74
2024/01/30 05:50:26;;;;;;;12.15;7.75;;;8.80;99.90;;;;;;4157551;28;20494;-73
2024/01/30 05:52:26;;;;;;;10.70;6.57;;;8.80;99.90;;;;;;4156096;28;20072;-73
2024/01/30 05:54:27;;;;;;;11.77;6.18;;;8.80;99.90;;;;;;4157479;28;20037;-73
2024/01/30 05:56:28;;;;;;;11.25;6.43;;;8.80;99.90;;;;;;4157300;28;20042;-73
2024/01/30 05:58:29;;;;;;;13.75;6.90;;;8.80;99.90;;;;;;4136904;28;20037;-73
2024/01/30 06:00:30;;;;;;;10.90;6.30;;;8.80;99.90;;;;;;4153727;28;20034;-75
2024/01/30 06:02:30;;;;;;;10.02;6.40;;;8.80;99.90;;;;;;4130594;28;20046;-76
2024/01/30 06:04:31;;;;;;;10.63;6.50;;;8.80;99.90;;;;;;4138742;28;20030;-75
2024/01/30 06:06:32;;;;;;;10.55;6.57;;;8.80;99.90;;;;;;4138220;28;20029;-73
2024/01/30 06:08:32;;;;;;;9.63;6.70;;;8.90;99.90;;;;;;4153887;28;20037;-74
2024/01/30 06:10:33;;;;;;;12.57;7.32;;;8.90;99.90;;;;;;4131289;28;20034;-73
2024/01/30 06:12:33;;;;;;;13.00;6.95;;;8.90;99.90;;;;;;4153365;28;20819;-74
2024/01/30 06:14:34;;;;;;;11.90;6.03;;;8.90;99.90;;;;;;4153311;28;20494;-75
2024/01/30 06:16:35;;;;;;;10.30;6.50;;;8.90;99.90;;;;;;4136778;28;20392;-74
2024/01/30 06:18:35;;;;;;;14.00;7.40;;;8.90;99.90;;;;;;4142689;28;20030;-74
2024/01/30 06:20:36;;;;;;;11.23;6.75;;;8.90;99.90;;;;;;4141711;28;20046;-75
2024/01/30 06:22:36;;;;;;;13.15;6.20;;;8.90;99.90;;;;;;4163586;28;22302;-74
2024/01/30 06:24:37;;;;;;;14.57;6.65;;;8.90;99.90;;;;;;4164070;28;20041;-73
2024/01/30 06:26:38;;;;;;;10.23;6.53;;;8.90;99.90;;;;;;4158909;28;20033;-73
2024/01/30 06:28:39;;;;;;;12.43;7.55;;;9.00;99.90;;;;;;4158581;28;20086;-75
2024/01/30 06:30:39;;;;;;;13.25;6.35;;;9.00;99.90;;;;;;4159719;28;20029;-74
2024/01/30 06:32:40;;;;;;;10.57;6.55;;;9.00;99.90;;;;;;4142837;28;20419;-73
2024/01/30 06:34:41;;;;;;;12.70;6.90;;;9.00;99.90;;;;;;4145411;28;20467;-73
2024/01/30 06:36:42;;;;;;;11.43;6.53;;;9.00;99.90;;;;;;4156887;28;20037;-73
2024/01/30 06:38:42;;;;;;;13.35;7.00;;;9.00;99.90;;;;;;4157737;28;20033;-76
2024/01/30 06:40:43;;;;;;;12.77;6.72;;;9.00;99.90;;;;;;4161223;28;20186;-74
2024/01/30 06:42:43;;;;;;;12.43;6.40;;;8.90;99.90;;;;;;4140758;28;20495;-74
2024/01/30 06:44:44;;;;;;;10.82;6.10;;;9.00;99.90;;;;;;4153487;28;20022;-75
2024/01/30 06:46:45;;;;;;;12.82;6.00;;;9.00;99.90;;;;;;4134148;28;20080;-75
2024/01/30 06:48:45;;;;;;;10.68;6.75;;;9.00;99.90;;;;;;4154521;28;20030;-74
2024/01/30 06:50:47;;;;;;;11.75;6.90;;;9.00;99.90;;;;;;4159557;28;20486;-73
2024/01/30 06:52:48;;;;;;;11.35;6.88;;;8.90;99.90;;;;;;4139822;28;20160;-75
2024/01/30 06:54:48;;;;;;;11.77;6.65;;;9.00;99.90;;;;;;4141440;28;20113;-75
2024/01/30 06:56:49;;;;;;;12.55;7.15;;;8.90;99.90;;;;;;4134682;28;20038;-75
2024/01/30 06:58:50;;;;;;;14.00;6.38;;;9.00;99.90;;;;;;4162596;28;20487;-75
2024/01/30 07:00:51;;;;;;;11.85;6.85;;;9.00;99.90;;;;;;4134905;28;20472;-74
2024/01/30 07:02:52;;;;;;;11.90;6.53;;;9.00;99.90;;;;;;4149125;28;20041;-74
2024/01/30 07:04:52;;;;;;;11.43;6.60;;;9.00;99.90;;;;;;4138243;28;20053;-75
2024/01/30 07:06:53;;;;;;;15.25;6.95;;;9.00;99.90;;;;;;4156762;28;20025;-74
2024/01/30 07:08:53;;;;;;;8.18;5.93;;;9.00;99.90;;;;;;4134159;28;20044;-75
2024/01/30 07:10:55;;;;;;;9.48;6.88;;;9.00;99.90;;;;;;4151672;28;20037;-74
2024/01/30 07:12:55;;;;;;;12.38;6.90;;;9.00;99.90;;;;;;4152307;28;21380;-74
2024/01/30 07:14:56;;;;;;;12.30;6.95;;;8.90;99.90;;;;;;4153396;28;20041;-74
2024/01/30 07:16:57;;;;;;;10.90;6.95;;;8.90;99.90;;;;;;4152030;28;20494;-74
2024/01/30 07:18:57;;;;;;;12.70;6.80;;;9.00;99.90;;;;;;4136531;28;20389;-74
2024/01/30 07:20:58;;;;;;;11.38;7.03;;;9.00;99.90;;;;;;4148926;28;20399;-74
2024/01/30 07:22:59;;;;;;;10.68;6.68;;;9.00;99.90;;;;;;4135705;28;20462;-75
2024/01/30 07:24:59;;;;;;;9.07;5.15;;;9.00;99.90;;;;;;4154542;28;20026;-75
2024/01/30 07:27:00;;;;;;;9.27;6.03;;;9.00;99.90;;;;;;4150930;28;20038;-75
2024/01/30 07:29:01;;;;;;;10.25;6.28;;;9.00;99.90;;;;;;4133875;28;20141;-74
2024/01/30 07:31:03;;;;;;;11.27;6.55;;;9.00;99.90;;;;;;4152259;28;20037;-75
2024/01/30 07:33:04;;;;;;;15.50;6.82;;;9.10;99.90;;;;;;4157061;28;20033;-74
2024/01/30 07:35:04;;;;;;;11.93;6.47;;;9.00;99.90;;;;;;4154954;28;20044;-75
2024/01/30 07:37:08;;;;;;;14.23;7.20;;;9.00;99.90;;;;;;4121154;28;20049;-74
2024/01/30 07:39:10;;;;;;;10.80;6.65;;;9.10;99.90;;;;;;4113203;28;20040;-75
2024/01/30 07:41:10;;;;;;;10.50;6.75;;;9.10;99.90;;;;;;4149799;28;20045;-75
2024/01/30 07:43:11;;;;;;;11.68;6.43;;;9.10;99.90;;;;;;4139403;28;20041;-75
2024/01/30 07:45:11;;;;;;;10.88;6.53;;;9.10;99.90;;;;;;4152146;28;20041;-75
2024/01/30 07:47:12;;;;;;;9.95;5.82;;;9.10;99.90;;;;;;4150900;28;20045;-74
2024/01/30 07:49:14;;;;;;;11.65;6.93;;;9.10;99.90;;;;;;4154026;28;20041;-74
2024/01/30 07:51:14;;;;;;;9.57;6.20;;;9.10;99.90;;;;;;4118622;28;20041;-75
2024/01/30 07:53:15;;;;;;;13.23;7.20;;;9.10;99.90;;;;;;4152586;28;20050;-75
2024/01/30 07:55:15;;;;;;;10.18;6.57;;;9.10;99.90;;;;;;4120374;28;20046;-75
2024/01/30 07:57:16;;;;;;;11.00;6.85;;;9.10;99.90;;;;;;4137359;28;20463;-75
2024/01/30 07:59:18;;;;;;;11.20;6.53;;;9.20;99.90;;;;;;4131403;28;20898;-74
2024/01/30 08:01:19;;;;;;;11.07;6.13;;;9.10;99.90;;;;;;4149998;28;20139;-75
2024/01/30 08:03:19;;;;;;;11.65;6.40;;;9.10;99.90;;;;;;4137987;28;20297;-75
2024/01/30 08:05:22;;;;;;;10.60;6.18;;;9.20;99.90;;;;;;4154152;28;20053;-75
2024/01/30 08:07:22;;;;;;;11.88;6.05;;;9.20;99.90;;;;;;4154321;28;20548;-74
2024/01/30 08:09:23;;;;;;;9.00;6.00;;;9.20;99.90;;;;;;4155160;28;20033;-75
2024/01/30 08:11:26;;;;;;;12.88;6.90;;;9.20;99.90;;;;;;4152204;28;20124;-75
2024/01/30 08:13:26;;;;;;;;;;;9.20;99.90;;;;;;4155856;28;20540;-74
2024/01/30 08:15:27;;;;;;;9.98;6.13;;;9.20;99.90;;;;;;4137516;28;19922;-75
2024/01/30 08:17:27;;;;;;;13.25;7.45;;;9.30;99.90;;;;;;4150948;28;20049;-75
2024/01/30 08:19:28;;;;;;;13.75;6.70;;;9.20;99.90;;;;;;4136408;28;20133;-74
2024/01/30 08:21:29;;;;;;;9.75;5.88;;;9.20;99.90;;;;;;4136723;28;20536;-75
2024/01/30 08:23:29;;;;;;;10.57;6.13;;;9.20;99.90;;;;;;4139751;28;20065;-75
2024/01/30 08:25:30;;;;;;;10.20;6.30;;;9.30;99.90;;;;;;4151178;28;20116;-75
2024/01/30 08:27:31;;;;;;;12.43;6.28;;;9.30;99.90;;;;;;4154355;28;20533;-74
2024/01/30 08:29:31;;;;;;;10.30;6.28;;;9.30;99.90;;;;;;4152575;28;20499;-77
2024/01/30 08:31:32;;;;;;;12.00;6.88;;;9.30;99.90;;;;;;4151634;28;20337;-78
2024/01/30 08:33:32;;;;;;;11.10;6.15;;;9.30;99.90;;;;;;4137529;28;20116;-77
2024/01/30 08:35:33;;;;;;;11.13;6.15;;;9.30;99.90;;;;;;4152091;28;20037;-76
2024/01/30 08:37:33;;;;;;;10.27;6.25;;;9.30;99.90;;;;;;4140579;28;20026;-76
2024/01/30 08:39:34;;;;;;;10.10;6.72;;;9.30;99.90;;;;;;4153039;28;20129;-78
2024/01/30 08:41:35;;;;;;;10.23;6.47;;;9.40;99.90;;;;;;4154512;28;20391;-78
2024/01/30 08:43:36;;;;;;;12.15;6.88;;;9.40;99.90;;;;;;4152121;28;20602;-78
2024/01/30 08:45:37;;;;;;;10.32;6.35;;;9.40;99.90;;;;;;4153015;28;20067;-78
2024/01/30 08:47:37;;;;;;;13.88;6.75;;;9.40;99.90;;;;;;4154572;28;20414;-77
2024/01/30 08:49:38;;;;;;;10.77;6.25;;;9.40;99.90;;;;;;4152191;28;20032;-75
2024/01/30 08:51:41;;;;;;;9.25;6.13;;;9.40;99.90;;;;;;4154987;28;20030;-74
2024/01/30 08:53:42;;;;;;;9.82;6.18;;;9.40;99.90;;;;;;4153029;28;20037;-73
2024/01/30 08:55:43;;;;;;;11.20;5.50;;;9.40;99.90;;;;;;4134882;28;20463;-74
2024/01/30 08:57:44;;;;;;;9.85;6.10;;;9.40;99.90;;;;;;4137760;28;20061;-74
2024/01/30 08:59:45;;;;;;;11.77;6.82;;;9.50;99.90;;;;;;4137161;28;20037;-74
2024/01/30 09:01:46;;;;;;;8.52;5.63;;;9.50;99.90;;;;;;4153893;28;20152;-73
2024/01/30 09:03:47;;;;;;;9.23;6.15;;;9.50;99.90;;;;;;4153999;28;20057;-73
2024/01/30 09:05:48;;;;;;;9.38;5.80;;;9.50;99.90;;;;;;4138476;28;20042;-74
2024/01/30 09:07:48;;;;;;;11.55;6.10;;;9.60;99.90;;;;;;4154326;28;21198;-73
2024/01/30 09:09:49;;;;;;;11.43;6.38;;;9.50;99.90;;;;;;4154764;28;21384;-73
2024/01/30 09:11:50;;;;;;;15.15;6.30;;;9.60;99.90;;;;;;4153937;28;20049;-74
2024/01/30 09:13:50;;;;;;;10.10;6.53;;;9.60;99.90;;;;;;4135852;28;21364;-74
2024/01/30 09:15:51;;;;;;;11.50;6.47;;;9.60;99.90;;;;;;4156875;28;20068;-74
2024/01/30 09:17:51;;;;;;;8.77;5.93;;;9.60;99.90;;;;;;4155170;28;20097;-73
2024/01/30 09:19:52;;;;;;;10.82;6.50;;;9.60;99.90;;;;;;4154255;28;20121;-73
2024/01/30 09:21:52;;;;;;;9.98;6.03;;;9.70;99.90;;;;;;4155228;28;20563;-74
2024/01/30 09:23:55;;;;;;;11.85;6.50;;;9.70;99.90;;;;;;4140590;28;20037;-73
2024/01/30 09:25:56;;;;;;;10.65;6.88;;;9.70;99.90;;;;;;4152511;28;20033;-73
2024/01/30 09:27:56;;;;;;;12.65;6.35;;;9.80;99.90;;;;;;4136280;28;20124;-74
2024/01/30 09:29:57;;;;;;;13.07;6.90;;;9.80;99.90;;;;;;4141238;28;20037;-74
2024/01/30 09:31:57;;;;;;;10.30;6.18;;;9.80;99.90;;;;;;4151112;28;20034;-73
2024/01/30 09:33:58;;;;;;;9.43;5.75;;;9.80;99.90;;;;;;4154127;28;20125;-75
2024/01/30 09:35:59;;;;;;;9.73;6.10;;;9.90;99.90;;;;;;4152540;28;20041;-75
2024/01/30 09:37:59;;;;;;;11.48;6.53;;;9.90;99.90;;;;;;4153376;28;20040;-75
2024/01/30 09:40:01;;;;;;;10.13;5.95;;;9.90;99.90;;;;;;4153841;28;20498;-73
2024/01/30 09:42:14;;;;;;;10.38;5.63;;;9.90;99.90;;;;;;4153637;28;20049;-74
2024/01/30 09:44:20;;;;;;;9.20;5.82;;;10.00;99.90;;;;;;4152565;28;20491;-74
2024/01/30 09:46:22;;;;;;;9.73;6.13;;;10.10;99.90;;;;;;4152958;28;20558;-75
2024/01/30 09:48:24;;;;;;;12.07;5.47;;;10.10;99.90;;;;;;4157966;28;20029;-74
2024/01/30 09:50:25;;;;;;;10.65;6.32;;;10.10;99.90;;;;;;4160895;28;20595;-73
2024/01/30 09:52:25;;;;;;;11.30;6.57;;;10.20;99.90;;;;;;4154923;28;20054;-73
2024/01/30 09:54:28;;;;;;;10.13;5.90;;;10.20;99.90;;;;;;4154034;28;20104;-74
2024/01/30 09:56:29;;;;;;;9.43;6.50;;;10.20;99.90;;;;;;4156535;28;20073;-75
2024/01/30 09:58:29;;;;;;;12.90;6.68;;;10.20;99.90;;;;;;4153530;28;20543;-74
2024/01/30 10:00:30;;;;;;;9.48;6.20;;;10.20;99.90;;;;;;4152572;28;20049;-75
2024/01/30 10:02:34;;;;;;;10.50;6.15;;;10.30;99.90;;;;;;4150747;28;20037;-74
2024/01/30 10:04:35;;;;;;;8.63;5.57;;;10.30;99.90;;;;;;4138795;28;20693;-75
2024/01/30 10:06:37;;;;;;;10.73;6.47;;;10.40;99.90;;;;;;4136493;28;20073;-75
2024/01/30 10:08:37;;;;;;;10.02;6.43;;;10.40;99.90;;;;;;4155972;28;20112;-74
2024/01/30 10:10:38;;;;;;;11.38;6.45;;;10.40;99.90;;;;;;4135324;28;20697;-75
2024/01/30 10:12:39;;;;;;;14.65;7.05;;;10.40;99.90;;;;;;4156663;28;20174;-75
2024/01/30 10:14:40;;;;;;;11.60;6.95;;;10.50;99.90;;;;;;4153729;28;20128;-74
2024/01/30 10:16:41;;;;;;;9.85;6.60;;;10.50;99.90;;;;;;4154508;28;20033;-75
2024/01/30 10:18:42;;;;;;;10.35;6.13;;;10.50;99.90;;;;;;4156959;28;20605;-75
2024/01/30 10:20:42;;;;;;;11.63;6.32;;;10.60;99.90;;;;;;4152791;28;20060;-75
2024/01/30 10:22:45;;;;;;;15.13;6.60;;;10.60;99.90;;;;;;4139831;28;20514;-74
2024/01/30 10:24:46;;;;;;;;;;;10.60;99.90;;;;;;4153259;28;20061;-75
2024/01/30 10:26:46;;;;;;;9.15;5.32;;;10.70;99.90;;;;;;4155613;28;19917;-75
2024/01/30 10:28:48;;;;;;;10.40;5.90;;;10.80;99.90;;;;;;4154477;28;20479;-75
2024/01/30 10:30:59;;;;;;;10.35;6.40;;;10.70;99.90;;;;;;4149041;28;20494;-74